createdAt,value
2022-10-14T00:01:10.831Z,4.90
2022-10-14T00:03:38.697Z,5.20
2022-10-14T00:06:15.054Z,5.13
2022-10-14T00:08:42.727Z,5.00
2022-10-14T00:11:12.657Z,4.47
2022-10-14T00:13:39.895Z,3.88
2022-10-14T00:16:14.184Z,3.65
2022-10-14T00:18:40.837Z,3.95
2022-10-14T00:21:07.227Z,4.43
2022-10-14T00:23:33.534Z,3.97
2022-10-14T00:26:00.430Z,3.90
2022-10-14T00:28:26.784Z,4.13
2022-10-14T00:30:58.839Z,3.50
2022-10-14T00:33:25.760Z,4.13
2022-10-14T00:36:00.771Z,4.55
2022-10-14T00:38:28.047Z,3.80
2022-10-14T00:40:55.612Z,3.60
2022-10-14T00:43:24.444Z,4.68
2022-10-14T00:45:50.856Z,3.58
2022-10-14T00:48:20.966Z,3.53
2022-10-14T00:50:50.984Z,3.30
2022-10-14T00:53:17.928Z,3.83
2022-10-14T00:55:44.450Z,3.90
2022-10-14T00:58:12.047Z,4.10
2022-10-14T01:00:39.253Z,3.92
2022-10-14T01:03:10.879Z,3.75
2022-10-14T01:05:48.756Z,4.40
2022-10-14T01:08:25.478Z,4.53
2022-10-14T01:11:10.229Z,4.05
2022-10-14T01:13:43.428Z,3.70
2022-10-14T01:16:59.428Z,4.22
2022-10-14T01:19:48.419Z,3.67
2022-10-14T01:22:26.602Z,3.85
2022-10-14T01:25:11.415Z,3.65
2022-10-14T01:28:21.923Z,4.65
2022-10-14T01:30:58.247Z,4.28
2022-10-14T01:33:28.429Z,4.20
2022-10-14T01:36:17.828Z,3.67
2022-10-14T01:39:11.343Z,4.15
2022-10-14T01:41:51.168Z,4.38
2022-10-14T01:44:22.547Z,4.38
2022-10-14T01:46:53.658Z,4.30
2022-10-14T01:49:27.450Z,4.38
2022-10-14T01:51:59.751Z,4.53
2022-10-14T01:54:33.431Z,4.88
2022-10-14T01:57:04.341Z,4.72
2022-10-14T01:59:32.480Z,5.10
2022-10-14T02:01:59.126Z,5.18
2022-10-14T02:04:25.539Z,4.80
2022-10-14T02:07:06.806Z,5.30
2022-10-14T02:09:56.916Z,4.25
2022-10-14T02:12:39.517Z,5.35
2022-10-14T02:15:11.924Z,4.88
2022-10-14T02:17:51.414Z,5.15
2022-10-14T02:20:33.336Z,4.80
2022-10-14T02:23:11.364Z,4.30
2022-10-14T02:25:40.524Z,4.90
2022-10-14T02:28:10.860Z,4.90
2022-10-14T02:30:42.183Z,5.10
2022-10-14T02:33:08.753Z,5.13
2022-10-14T02:35:37.448Z,4.95
2022-10-14T02:38:06.688Z,5.03
2022-10-14T02:40:37.919Z,4.75
2022-10-14T02:43:04.769Z,4.90
2022-10-14T02:45:31.527Z,5.85
2022-10-14T02:47:58.272Z,5.72
2022-10-14T02:50:24.681Z,4.95
2022-10-14T02:52:51.015Z,5.38
2022-10-14T02:55:17.920Z,6.15
2022-10-14T02:57:44.363Z,6.40
2022-10-14T03:00:11.398Z,5.78
2022-10-14T03:02:38.180Z,6.28
2022-10-14T03:05:05.070Z,6.47
2022-10-14T03:07:31.777Z,7.65
2022-10-14T03:09:58.764Z,7.55
2022-10-14T03:12:25.963Z,7.18
2022-10-14T03:14:52.310Z,6.82
2022-10-14T03:17:19.335Z,7.28
2022-10-14T03:19:45.657Z,7.10
2022-10-14T03:22:12.018Z,7.18
2022-10-14T03:24:38.867Z,6.97
2022-10-14T03:27:05.214Z,7.07
2022-10-14T03:29:31.519Z,7.90
2022-10-14T03:31:58.204Z,6.97
2022-10-14T03:34:24.527Z,7.60
2022-10-14T03:36:50.836Z,8.25
2022-10-14T03:39:17.156Z,7.72
2022-10-14T03:41:43.964Z,7.97
2022-10-14T03:44:10.903Z,7.45
2022-10-14T03:46:37.750Z,7.22
2022-10-14T03:49:04.106Z,7.72
2022-10-14T03:51:30.474Z,7.63
2022-10-14T03:53:57.170Z,8.20
2022-10-14T03:56:23.555Z,7.78
2022-10-14T03:58:50.352Z,8.38
2022-10-14T04:01:16.972Z,8.82
2022-10-14T04:03:46.416Z,9.07
2022-10-14T04:06:17.386Z,9.68
2022-10-14T04:08:43.836Z,9.23
2022-10-14T04:11:10.474Z,9.75
2022-10-14T04:13:37.379Z,9.63
2022-10-14T04:16:08.693Z,10.30
2022-10-14T04:18:35.811Z,10.60
2022-10-14T04:21:08.357Z,10.68
2022-10-14T04:23:34.884Z,10.25
2022-10-14T04:26:05.712Z,10.63
2022-10-14T04:28:33.585Z,10.57
2022-10-14T04:31:00.057Z,10.15
2022-10-14T04:33:27.336Z,9.60
2022-10-14T04:36:01.428Z,10.00
2022-10-14T04:38:29.087Z,9.63
2022-10-14T04:40:56.114Z,10.43
2022-10-14T04:43:22.600Z,9.75
2022-10-14T04:45:49.113Z,8.70
2022-10-14T04:48:16.187Z,9.32
2022-10-14T04:50:42.731Z,8.20
2022-10-14T04:53:13.514Z,8.13
2022-10-14T04:55:40.428Z,6.88
2022-10-14T04:58:06.806Z,6.57
2022-10-14T05:00:33.784Z,7.85
2022-10-14T05:03:00.131Z,6.60
2022-10-14T05:05:26.849Z,6.85
2022-10-14T05:07:53.719Z,7.35
2022-10-14T05:10:20.111Z,7.07
2022-10-14T05:12:46.459Z,6.82
2022-10-14T05:15:13.194Z,6.55
2022-10-14T05:17:39.695Z,6.63
2022-10-14T05:20:06.987Z,7.00
2022-10-14T05:22:34.397Z,6.78
2022-10-14T05:25:00.722Z,6.28
2022-10-14T05:27:27.100Z,6.35
2022-10-14T05:29:53.911Z,6.32
2022-10-14T05:32:21.149Z,6.72
2022-10-14T05:34:47.701Z,5.72
2022-10-14T05:37:14.031Z,5.75
2022-10-14T05:39:40.724Z,5.70
2022-10-14T05:42:07.431Z,5.88
2022-10-14T05:44:34.132Z,5.65
2022-10-14T05:47:01.530Z,6.38
2022-10-14T05:49:28.272Z,5.72
2022-10-14T05:51:54.603Z,5.63
2022-10-14T05:54:20.931Z,5.35
2022-10-14T05:56:47.639Z,5.53
2022-10-14T05:59:13.954Z,5.35
2022-10-14T06:01:40.717Z,5.57
2022-10-14T06:04:07.691Z,5.22
2022-10-14T06:06:34.039Z,6.20
2022-10-14T06:09:00.432Z,5.38
2022-10-14T06:11:27.138Z,6.30
2022-10-14T06:13:54.496Z,5.72
2022-10-14T06:16:20.897Z,6.10
2022-10-14T06:18:50.986Z,6.47
2022-10-14T06:21:20.363Z,5.35
2022-10-14T06:23:46.672Z,5.72
2022-10-14T06:26:13.086Z,6.32
2022-10-14T06:28:40.134Z,5.15
2022-10-14T06:31:07.091Z,5.97
2022-10-14T06:33:34.049Z,5.55
2022-10-14T06:36:04.902Z,5.40
2022-10-14T06:38:31.882Z,5.63
2022-10-14T06:40:58.191Z,5.10
2022-10-14T06:43:24.586Z,5.70
2022-10-14T06:45:51.395Z,5.53
2022-10-14T06:48:17.722Z,5.53
2022-10-14T06:50:44.058Z,5.60
2022-10-14T06:53:10.899Z,5.57
2022-10-14T06:55:37.225Z,5.40
2022-10-14T06:58:03.821Z,5.88
2022-10-14T07:00:30.607Z,5.70
2022-10-14T07:02:59.159Z,5.13
2022-10-14T07:05:26.761Z,5.30
2022-10-14T07:07:53.620Z,5.32
2022-10-14T07:10:20.071Z,6.18
2022-10-14T07:12:46.387Z,5.50
2022-10-14T07:15:13.106Z,5.50
2022-10-14T07:17:39.787Z,5.55
2022-10-14T07:20:06.784Z,5.35
2022-10-14T07:22:39.000Z,7.13
2022-10-14T07:25:06.235Z,5.65
2022-10-14T07:27:32.631Z,5.65
2022-10-14T07:29:59.289Z,6.70
2022-10-14T07:32:25.611Z,7.25
2022-10-14T07:34:51.948Z,6.93
2022-10-14T07:37:19.211Z,7.35
2022-10-14T07:39:45.896Z,7.40
2022-10-14T07:42:12.252Z,6.72
2022-10-14T07:44:40.104Z,7.70
2022-10-14T07:47:06.698Z,8.65
2022-10-14T07:49:33.308Z,8.07
2022-10-14T07:52:00.140Z,8.55
2022-10-14T07:54:29.288Z,8.18
2022-10-14T07:56:57.894Z,9.05
2022-10-14T07:59:25.707Z,7.53
2022-10-14T08:01:53.256Z,7.40
2022-10-14T08:04:19.869Z,7.03
2022-10-14T08:06:50.634Z,7.45
2022-10-14T08:09:18.386Z,7.38
2022-10-14T08:11:45.161Z,7.60
2022-10-14T08:14:12.183Z,7.20
2022-10-14T08:16:39.425Z,7.35
2022-10-14T08:19:14.557Z,7.65
2022-10-14T08:21:42.775Z,6.97
2022-10-14T08:24:09.762Z,6.63
2022-10-14T08:26:38.811Z,6.82
2022-10-14T08:29:10.065Z,6.50
2022-10-14T08:31:36.718Z,6.47
2022-10-14T08:34:04.006Z,6.80
2022-10-14T08:36:30.527Z,5.75
2022-10-14T08:38:56.961Z,6.38
2022-10-14T08:41:56.899Z,6.95
2022-10-14T08:44:27.086Z,6.45
2022-10-14T08:47:02.887Z,6.68
2022-10-14T08:49:37.646Z,7.00
2022-10-14T08:52:13.722Z,7.07
2022-10-14T08:54:44.189Z,7.65
2022-10-14T08:57:19.511Z,7.55
2022-10-14T08:59:46.531Z,6.95
2022-10-14T09:02:21.698Z,6.00
2022-10-14T09:04:48.648Z,5.57
2022-10-14T09:07:18.752Z,6.07
2022-10-14T09:09:50.251Z,7.18
2022-10-14T09:12:20.823Z,7.78
2022-10-14T09:15:00.129Z,6.90
2022-10-14T09:17:37.913Z,7.13
2022-10-14T09:20:16.849Z,6.50
2022-10-14T09:22:43.363Z,6.05
2022-10-14T09:25:15.341Z,7.25
2022-10-14T09:27:42.951Z,6.70
2022-10-14T09:30:14.993Z,6.57
2022-10-14T09:32:50.240Z,5.30
2022-10-14T09:35:41.091Z,5.15
2022-10-14T09:38:07.996Z,5.35
2022-10-14T09:40:36.189Z,4.88
2022-10-14T09:43:08.699Z,5.20
2022-10-14T09:46:07.125Z,4.82
2022-10-14T09:48:47.478Z,4.63
2022-10-14T09:51:26.350Z,4.45
2022-10-14T09:53:55.205Z,5.20
2022-10-14T09:56:30.671Z,4.47
2022-10-14T09:58:57.891Z,4.68
2022-10-14T10:01:27.527Z,3.80
2022-10-14T10:03:56.271Z,4.90
2022-10-14T10:06:26.363Z,3.97
2022-10-14T10:08:52.619Z,4.05
2022-10-14T10:11:38.035Z,3.58
2022-10-14T10:14:22.028Z,4.10
2022-10-14T10:19:32.845Z,3.83
2022-10-14T10:22:26.551Z,3.83
2022-10-14T10:25:13.719Z,4.50
2022-10-14T10:27:49.473Z,3.35
2022-10-14T10:30:20.133Z,4.20
2022-10-14T10:33:14.183Z,4.05
2022-10-14T10:38:57.397Z,3.80
2022-10-14T10:41:26.331Z,3.70
2022-10-14T10:44:12.112Z,3.72
2022-10-14T10:47:09.342Z,4.15
2022-10-14T10:50:04.829Z,3.38
2022-10-14T10:52:48.529Z,4.13
2022-10-14T10:55:28.121Z,4.57
2022-10-14T10:58:19.518Z,3.42
2022-10-14T11:00:54.450Z,3.05
2022-10-14T11:03:33.941Z,3.28
2022-10-14T11:06:09.257Z,4.00
2022-10-14T11:09:15.511Z,4.28
2022-10-14T11:12:03.048Z,3.78
2022-10-14T11:14:46.609Z,3.85
2022-10-14T11:17:26.539Z,3.50
2022-10-14T11:19:59.637Z,3.20
2022-10-14T11:23:04.533Z,3.90
2022-10-14T11:25:54.042Z,3.45
2022-10-14T11:28:46.721Z,3.63
2022-10-14T11:31:21.634Z,3.65
2022-10-14T11:34:09.999Z,3.60
2022-10-14T11:36:50.431Z,3.30
2022-10-14T11:39:34.746Z,3.13
2022-10-14T11:42:21.078Z,3.38
2022-10-14T11:44:56.108Z,3.00
2022-10-14T11:47:27.731Z,2.60
2022-10-14T11:50:06.319Z,3.15
2022-10-14T11:52:38.018Z,2.53
2022-10-14T11:55:23.427Z,2.92
2022-10-14T11:57:58.789Z,3.05
2022-10-14T12:00:50.015Z,2.88
2022-10-14T12:03:28.979Z,2.53
2022-10-14T12:06:06.945Z,3.13
2022-10-14T12:08:47.931Z,2.28
2022-10-14T12:11:30.845Z,2.70
2022-10-14T12:14:07.188Z,2.40
2022-10-14T12:16:33.801Z,1.83
2022-10-14T12:19:00.676Z,2.28
2022-10-14T12:21:49.752Z,2.40
2022-10-14T12:24:21.022Z,2.22
2022-10-14T12:27:19.036Z,2.30
2022-10-14T12:29:50.613Z,1.20
2022-10-14T12:32:20.105Z,1.70
2022-10-14T12:34:49.786Z,1.38
2022-10-14T12:37:28.913Z,4.07
2022-10-14T12:40:05.789Z,1.58
2022-10-14T12:42:36.940Z,2.03
2022-10-14T12:45:15.406Z,2.03
2022-10-14T12:47:42.873Z,1.85
2022-10-14T12:50:15.272Z,1.20
2022-10-14T12:52:47.435Z,1.67
2022-10-14T12:55:20.279Z,2.33
2022-10-14T12:57:55.328Z,1.65
2022-10-14T13:00:21.591Z,1.75
2022-10-14T13:02:56.774Z,1.50
2022-10-14T13:05:40.242Z,1.30
2022-10-14T13:08:16.183Z,1.10
2022-10-14T13:10:48.405Z,1.30
2022-10-14T13:13:40.924Z,1.67
2022-10-14T13:16:30.366Z,1.83
2022-10-14T13:19:01.514Z,1.48
2022-10-14T13:21:37.004Z,1.50
2022-10-14T13:24:15.802Z,1.90
2022-10-14T13:26:54.327Z,1.50
2022-10-14T13:29:21.044Z,1.67
2022-10-14T13:32:02.090Z,1.73
2022-10-14T13:34:43.729Z,1.35
2022-10-14T13:37:31.975Z,1.80
2022-10-14T13:40:08.559Z,1.35
2022-10-14T13:42:39.958Z,1.88
2022-10-14T13:45:11.846Z,1.42
2022-10-14T13:47:48.064Z,1.85
2022-10-14T13:50:19.599Z,1.80
2022-10-14T13:52:57.320Z,1.80
2022-10-14T13:55:27.015Z,1.58
2022-10-14T13:58:12.380Z,2.03
2022-10-14T14:00:45.196Z,1.70
2022-10-14T14:03:20.976Z,1.63
2022-10-14T14:05:48.071Z,2.30
2022-10-14T14:08:39.671Z,2.13
2022-10-14T14:11:23.135Z,2.35
2022-10-14T14:14:00.628Z,1.95
2022-10-14T14:16:32.113Z,1.92
2022-10-14T14:19:14.856Z,2.30
2022-10-14T14:21:41.239Z,2.28
2022-10-14T14:24:17.508Z,2.10
2022-10-14T14:26:44.108Z,1.90
2022-10-14T14:29:19.783Z,2.35
2022-10-14T14:32:05.445Z,1.30
2022-10-14T14:34:35.616Z,2.35
2022-10-14T14:37:17.265Z,2.75
2022-10-14T14:40:03.664Z,2.35
2022-10-14T14:42:37.552Z,1.95
2022-10-14T14:45:07.884Z,2.90
2022-10-14T14:47:34.436Z,3.17
2022-10-14T14:50:30.018Z,2.33
2022-10-14T14:52:51.670Z,3.00
2022-10-14T14:55:56.801Z,3.15
2022-10-14T14:58:45.317Z,2.80
2022-10-14T15:01:26.546Z,2.53
2022-10-14T15:04:13.308Z,2.10
2022-10-14T15:06:52.115Z,2.35
2022-10-14T15:09:35.186Z,2.20
2022-10-14T15:12:04.056Z,2.10
2022-10-14T15:14:36.652Z,2.83
2022-10-14T15:17:05.895Z,2.55
2022-10-14T15:19:38.774Z,2.83
2022-10-14T15:22:17.555Z,3.50
2022-10-14T15:25:09.279Z,2.85
2022-10-14T15:27:35.626Z,3.08
2022-10-14T15:30:25.013Z,2.38
2022-10-14T15:32:53.268Z,2.70
2022-10-14T15:35:21.516Z,2.70
2022-10-14T15:37:49.977Z,2.33
2022-10-14T15:40:27.429Z,3.10
2022-10-14T15:42:53.744Z,3.05
2022-10-14T15:45:20.244Z,2.45
2022-10-14T15:47:54.418Z,2.85
2022-10-14T15:50:24.225Z,3.53
2022-10-14T15:52:53.264Z,3.35
2022-10-14T15:55:30.118Z,2.67
2022-10-14T15:57:57.153Z,3.35
2022-10-14T16:00:24.870Z,3.30
2022-10-14T16:02:58.796Z,2.70
2022-10-14T16:05:26.851Z,3.30
2022-10-14T16:07:53.197Z,3.80
2022-10-14T16:10:22.208Z,3.40
2022-10-14T16:12:49.752Z,3.70
2022-10-14T16:15:33.547Z,3.22
2022-10-14T16:18:00.410Z,3.58
2022-10-14T16:20:26.867Z,3.92
2022-10-14T16:22:53.240Z,3.30
2022-10-14T16:25:23.951Z,3.42
2022-10-14T16:27:50.973Z,3.80
2022-10-14T16:30:17.901Z,3.60
2022-10-14T16:32:44.940Z,3.97
2022-10-14T16:35:11.428Z,4.32
2022-10-14T16:37:38.502Z,3.17
2022-10-14T16:40:05.656Z,3.58
2022-10-14T16:42:32.063Z,3.88
2022-10-14T16:44:58.991Z,3.95
2022-10-14T16:47:25.654Z,3.63
2022-10-14T16:49:52.296Z,2.97
2022-10-14T16:52:19.436Z,2.80
2022-10-14T16:54:46.043Z,3.60
2022-10-14T16:57:12.813Z,3.05
2022-10-14T16:59:39.915Z,3.55
2022-10-14T17:02:10.920Z,3.08
2022-10-14T17:04:37.795Z,3.55
2022-10-14T17:07:09.143Z,3.25
2022-10-14T17:09:36.502Z,3.50
2022-10-14T17:12:06.917Z,3.10
2022-10-14T17:14:36.573Z,3.65
2022-10-14T17:17:03.122Z,3.58
2022-10-14T17:19:30.214Z,3.30
2022-10-14T17:21:56.723Z,4.13
2022-10-14T17:24:23.169Z,4.50
2022-10-14T17:26:50.010Z,3.47
2022-10-14T17:29:16.442Z,3.88
2022-10-14T17:31:43.561Z,3.65
2022-10-14T17:34:10.900Z,3.72
2022-10-14T17:36:38.733Z,3.78
2022-10-14T17:39:05.108Z,3.92
2022-10-14T17:41:32.053Z,3.90
2022-10-14T17:44:01.247Z,3.85
2022-10-14T17:46:29.414Z,3.65
2022-10-14T17:48:59.333Z,2.88
2022-10-14T17:51:27.343Z,3.25
2022-10-14T17:53:56.879Z,3.55
2022-10-14T17:56:23.600Z,3.40
2022-10-14T17:58:54.800Z,3.80
2022-10-14T18:01:36.674Z,3.63
2022-10-14T18:04:04.431Z,3.58
2022-10-14T18:06:33.468Z,3.95
2022-10-14T18:09:04.192Z,3.40
2022-10-14T18:11:56.319Z,3.50
2022-10-14T18:14:21.541Z,3.65
2022-10-14T18:16:48.489Z,3.25
2022-10-14T18:19:17.499Z,3.85
2022-10-14T18:21:45.121Z,3.90
2022-10-14T18:24:12.166Z,4.63
2022-10-14T18:26:40.534Z,3.97
2022-10-14T18:29:08.959Z,3.90
2022-10-14T18:31:36.353Z,4.95
2022-10-14T18:34:03.093Z,4.50
2022-10-14T18:36:31.395Z,4.63
2022-10-14T18:39:03.636Z,4.70
2022-10-14T18:41:30.685Z,3.72
2022-10-14T18:44:00.088Z,4.03
2022-10-14T18:46:29.559Z,3.67
2022-10-14T18:48:58.211Z,4.13
2022-10-14T18:51:30.228Z,4.18
2022-10-14T18:53:59.163Z,3.60
2022-10-14T18:56:31.847Z,3.65
2022-10-14T18:59:01.414Z,4.75
2022-10-14T19:01:29.082Z,4.03
2022-10-14T19:03:56.380Z,4.50
2022-10-14T19:06:23.647Z,4.00
2022-10-14T19:08:50.730Z,3.88
2022-10-14T19:11:20.639Z,4.47
2022-10-14T19:13:49.004Z,4.40
2022-10-14T19:16:31.171Z,4.35
2022-10-14T19:19:00.687Z,3.35
2022-10-14T19:21:30.088Z,3.50
2022-10-14T19:23:58.462Z,3.40
2022-10-14T19:26:30.873Z,3.40
2022-10-14T19:28:59.121Z,2.80
2022-10-14T19:31:28.287Z,3.03
2022-10-14T19:33:56.180Z,3.28
2022-10-14T19:36:25.290Z,3.45
2022-10-14T19:38:59.927Z,3.30
2022-10-14T19:43:56.007Z,2.88
2022-10-14T19:46:23.716Z,3.53
2022-10-14T19:48:50.417Z,3.53
2022-10-14T19:51:18.102Z,3.22
2022-10-14T19:53:44.425Z,3.45
2022-10-14T19:56:13.267Z,4.03
2022-10-14T19:58:43.910Z,3.97
2022-10-14T20:01:17.309Z,3.50
2022-10-14T20:03:44.257Z,3.05
2022-10-14T20:06:12.146Z,3.15
2022-10-14T20:08:39.302Z,3.03
2022-10-14T20:11:07.897Z,3.10
2022-10-14T20:13:35.557Z,2.80
2022-10-14T20:16:02.378Z,3.05
2022-10-14T20:18:30.330Z,2.80
2022-10-14T20:20:57.587Z,2.50
2022-10-14T20:23:25.118Z,2.50
2022-10-14T20:25:52.289Z,2.40
2022-10-14T20:28:19.568Z,2.03
2022-10-14T20:30:48.175Z,2.10
2022-10-14T20:33:14.929Z,2.40
2022-10-14T20:35:41.259Z,2.35
2022-10-14T20:38:07.668Z,1.95
2022-10-14T20:40:36.039Z,2.67
2022-10-14T20:43:03.936Z,2.45
2022-10-14T20:45:30.623Z,2.53
2022-10-14T20:47:57.457Z,2.38
2022-10-14T20:50:23.831Z,2.70
2022-10-14T20:52:50.155Z,2.17
2022-10-14T20:55:16.762Z,2.38
2022-10-14T20:57:43.077Z,2.50
2022-10-14T21:00:09.915Z,2.42
2022-10-14T21:02:36.881Z,2.13
2022-10-14T21:05:03.600Z,2.97
2022-10-14T21:07:29.918Z,2.67
2022-10-14T21:09:56.854Z,2.78
2022-10-14T21:12:23.446Z,2.55
2022-10-14T21:14:49.909Z,2.65
2022-10-14T21:17:16.713Z,2.20
2022-10-14T21:19:43.091Z,2.45
2022-10-14T21:22:10.134Z,2.50
2022-10-14T21:24:41.104Z,2.65
2022-10-14T21:27:07.811Z,2.30
2022-10-14T21:29:34.190Z,2.55
2022-10-14T21:32:02.729Z,1.98
2022-10-14T21:34:30.002Z,2.15
2022-10-14T21:36:56.760Z,1.52
2022-10-14T21:39:24.218Z,1.58
2022-10-14T21:41:51.327Z,1.92
2022-10-14T21:44:19.945Z,1.48
2022-10-14T21:46:47.927Z,1.63
2022-10-14T21:49:15.289Z,1.25
2022-10-14T21:51:42.106Z,1.13
2022-10-14T21:54:12.128Z,1.17
2022-10-14T21:56:39.061Z,1.23
2022-10-14T21:59:05.998Z,1.20
2022-10-14T22:01:32.786Z,0.80
2022-10-14T22:04:03.667Z,1.00
2022-10-14T22:06:31.463Z,1.13
2022-10-14T22:09:00.038Z,0.80
2022-10-14T22:11:27.943Z,0.60
2022-10-14T22:13:56.175Z,0.93
2022-10-14T22:16:23.228Z,0.70
2022-10-14T22:18:52.091Z,0.77
2022-10-14T22:21:20.974Z,0.70
2022-10-14T22:23:48.007Z,0.65
2022-10-14T22:26:17.382Z,0.80
2022-10-14T22:28:43.840Z,0.43
2022-10-14T22:31:16.872Z,0.60
2022-10-14T22:33:44.817Z,0.60
2022-10-14T22:36:20.831Z,0.70
2022-10-14T22:38:52.162Z,0.60
2022-10-14T22:41:18.634Z,0.93
2022-10-14T22:43:46.969Z,0.60
2022-10-14T22:46:15.122Z,0.43
2022-10-14T22:48:41.827Z,0.57
2022-10-14T22:51:10.882Z,0.60
2022-10-14T22:53:39.125Z,0.28
2022-10-14T22:56:07.652Z,0.75
2022-10-14T22:58:34.100Z,0.60
2022-10-14T23:01:08.063Z,0.40
2022-10-14T23:03:35.595Z,0.50
2022-10-14T23:06:05.029Z,0.55
2022-10-14T23:08:31.867Z,0.60
2022-10-14T23:10:59.127Z,0.75
2022-10-14T23:13:26.714Z,0.35
2022-10-14T23:16:06.453Z,0.50
2022-10-14T23:18:35.929Z,0.50
2022-10-14T23:21:14.793Z,0.40
2022-10-14T23:23:42.132Z,0.40
2022-10-14T23:26:13.570Z,0.43
2022-10-14T23:28:40.829Z,0.32
2022-10-14T23:31:12.430Z,0.45
2022-10-14T23:33:39.622Z,0.45
2022-10-14T23:36:08.331Z,0.63
2022-10-14T23:38:36.286Z,0.70
2022-10-14T23:41:03.855Z,0.40
2022-10-14T23:43:30.718Z,0.70
2022-10-14T23:45:57.456Z,0.70
2022-10-14T23:48:23.872Z,0.68
2022-10-14T23:50:50.190Z,0.77
2022-10-14T23:53:17.786Z,0.50
2022-10-14T23:55:44.398Z,0.90
2022-10-14T23:58:10.711Z,0.80
